createdAt,value
2023-02-27T00:02:04.206Z,100.00
2023-02-27T00:04:31.529Z,100.00
2023-02-27T00:06:58.751Z,100.00
2023-02-27T00:09:26.136Z,100.00
2023-02-27T00:11:53.384Z,100.00
2023-02-27T00:14:20.797Z,100.00
2023-02-27T00:16:48.192Z,100.00
2023-02-27T00:19:15.449Z,100.00
2023-02-27T00:21:44.729Z,100.00
2023-02-27T00:24:11.962Z,100.00
2023-02-27T00:26:39.160Z,100.00
2023-02-27T00:29:07.291Z,100.00
2023-02-27T00:31:34.838Z,100.00
2023-02-27T00:34:02.167Z,100.00
2023-02-27T00:36:29.453Z,100.00
2023-02-27T00:38:58.117Z,100.00
2023-02-27T00:41:26.366Z,100.00
2023-02-27T00:43:53.904Z,100.00
2023-02-27T00:46:21.147Z,100.00
2023-02-27T00:48:48.502Z,100.00
2023-02-27T00:51:16.024Z,100.00
2023-02-27T00:53:43.213Z,100.00
2023-02-27T00:56:12.521Z,100.00
2023-02-27T00:58:39.876Z,100.00
2023-02-27T01:01:07.167Z,100.00
2023-02-27T01:03:34.431Z,100.00
2023-02-27T01:06:01.921Z,100.00
2023-02-27T01:08:29.317Z,100.00
2023-02-27T01:10:57.173Z,100.00
2023-02-27T01:13:24.426Z,100.00
2023-02-27T01:15:53.156Z,100.00
2023-02-27T01:18:20.371Z,100.00
2023-02-27T01:20:55.765Z,100.00
2023-02-27T01:23:23.833Z,100.00
2023-02-27T01:25:51.100Z,100.00
2023-02-27T01:28:18.531Z,100.00
2023-02-27T01:30:45.865Z,100.00
2023-02-27T01:33:15.545Z,100.00
2023-02-27T01:35:42.759Z,100.00
2023-02-27T01:38:09.995Z,100.00
2023-02-27T01:40:42.528Z,100.00
2023-02-27T01:43:20.023Z,100.00
2023-02-27T01:45:49.007Z,100.00
2023-02-27T01:48:29.102Z,100.00
2023-02-27T01:51:13.889Z,100.00
2023-02-27T01:53:45.846Z,100.00
2023-02-27T01:56:32.351Z,100.00
2023-02-27T01:59:07.722Z,100.00
2023-02-27T02:01:36.159Z,100.00
2023-02-27T02:04:28.243Z,100.00
2023-02-27T02:07:06.135Z,100.00
2023-02-27T02:09:40.467Z,100.00
2023-02-27T02:12:08.584Z,100.00
2023-02-27T02:14:35.856Z,100.00
2023-02-27T02:17:32.664Z,100.00
2023-02-27T02:20:35.144Z,100.00
2023-02-27T02:23:11.462Z,100.00
2023-02-27T02:26:29.272Z,100.00
2023-02-27T02:29:59.845Z,100.00
2023-02-27T02:33:15.355Z,100.00
2023-02-27T02:36:32.354Z,100.00
2023-02-27T02:39:33.401Z,100.00
2023-02-27T02:42:37.429Z,100.00
2023-02-27T02:45:48.576Z,100.00
2023-02-27T02:48:40.759Z,100.00
2023-02-27T02:51:30.632Z,100.00
2023-02-27T02:54:20.328Z,100.00
2023-02-27T02:57:02.365Z,100.00
2023-02-27T02:59:40.165Z,100.00
2023-02-27T03:02:17.103Z,100.00
2023-02-27T03:04:54.063Z,100.00
2023-02-27T03:07:43.292Z,100.00
2023-02-27T03:10:21.356Z,100.00
2023-02-27T03:13:14.408Z,100.00
2023-02-27T03:15:54.648Z,100.00
2023-02-27T03:18:35.015Z,100.00
2023-02-27T03:21:10.653Z,100.00
2023-02-27T03:23:48.028Z,100.00
2023-02-27T03:26:21.901Z,100.00
2023-02-27T03:29:06.644Z,100.00
2023-02-27T03:31:58.552Z,100.00
2023-02-27T03:34:38.167Z,100.00
2023-02-27T03:37:35.657Z,100.00
2023-02-27T03:40:33.500Z,100.00
2023-02-27T03:43:27.280Z,100.00
2023-02-27T03:46:16.766Z,100.00
2023-02-27T03:48:46.541Z,100.00
2023-02-27T03:51:21.073Z,100.00
2023-02-27T03:53:57.395Z,100.00
2023-02-27T03:56:32.753Z,100.00
2023-02-27T03:59:00.319Z,100.00
2023-02-27T04:01:28.344Z,100.00
2023-02-27T04:04:17.272Z,100.00
2023-02-27T04:07:53.101Z,100.00
2023-02-27T04:11:09.196Z,100.00
2023-02-27T04:13:54.416Z,100.00
2023-02-27T04:17:02.898Z,100.00
2023-02-27T04:19:41.975Z,99.50
2023-02-27T04:22:18.291Z,98.43
2023-02-27T04:24:53.800Z,97.62
2023-02-27T04:27:42.734Z,96.19
2023-02-27T04:30:30.267Z,99.97
2023-02-27T04:33:42.235Z,95.20
2023-02-27T04:36:40.593Z,97.54
2023-02-27T04:39:18.049Z,96.02
2023-02-27T04:42:03.533Z,93.23
2023-02-27T04:44:36.287Z,91.26
2023-02-27T04:47:07.666Z,92.65
2023-02-27T04:49:46.688Z,94.18
2023-02-27T04:52:25.729Z,94.48
2023-02-27T04:55:11.359Z,95.01
2023-02-27T04:57:48.442Z,95.31
2023-02-27T05:00:18.764Z,96.49
2023-02-27T05:02:52.463Z,96.93
2023-02-27T05:05:30.215Z,96.13
2023-02-27T05:08:37.901Z,99.24
2023-02-27T05:11:33.794Z,97.04
2023-02-27T05:14:21.807Z,97.24
2023-02-27T05:17:08.716Z,98.02
2023-02-27T05:19:41.295Z,95.70
2023-02-27T05:22:34.931Z,95.37
2023-02-27T05:25:37.788Z,95.91
2023-02-27T05:28:33.920Z,97.22
2023-02-27T05:31:21.099Z,96.06
2023-02-27T05:33:56.997Z,98.81
2023-02-27T05:36:57.693Z,99.56
2023-02-27T05:39:30.459Z,100.00
2023-02-27T05:42:14.129Z,100.00
2023-02-27T05:44:50.559Z,100.00
2023-02-27T05:47:23.689Z,100.00
2023-02-27T05:49:59.332Z,100.00
2023-02-27T05:52:28.369Z,100.00
2023-02-27T05:55:21.054Z,100.00
2023-02-27T05:58:07.447Z,100.00
2023-02-27T06:00:53.768Z,100.00
2023-02-27T06:03:21.908Z,100.00
2023-02-27T06:05:55.033Z,100.00
2023-02-27T06:08:23.011Z,100.00
2023-02-27T06:10:50.520Z,100.00
2023-02-27T06:13:18.580Z,100.00
2023-02-27T06:15:46.255Z,100.00
2023-02-27T06:18:15.300Z,100.00
2023-02-27T06:20:44.512Z,100.00
2023-02-27T06:23:12.648Z,100.00
2023-02-27T06:25:42.282Z,100.00
2023-02-27T06:28:10.757Z,100.00
2023-02-27T06:30:38.722Z,100.00
2023-02-27T06:33:05.984Z,100.00
2023-02-27T06:35:33.358Z,100.00
2023-02-27T06:38:00.588Z,100.00
2023-02-27T06:40:27.965Z,100.00
2023-02-27T06:42:55.168Z,100.00
2023-02-27T06:45:24.274Z,100.00
2023-02-27T06:47:51.563Z,100.00
2023-02-27T06:50:18.833Z,100.00
2023-02-27T06:52:46.118Z,100.00
2023-02-27T06:55:13.495Z,100.00
2023-02-27T06:57:40.714Z,100.00
2023-02-27T07:00:11.884Z,100.00
2023-02-27T07:02:39.770Z,100.00
2023-02-27T07:05:08.489Z,100.00
2023-02-27T07:07:37.958Z,100.00
2023-02-27T07:10:15.907Z,100.00
2023-02-27T07:12:43.198Z,100.00
2023-02-27T07:15:11.128Z,100.00
2023-02-27T07:17:38.422Z,100.00
2023-02-27T07:20:08.961Z,100.00
2023-02-27T07:22:37.689Z,100.00
2023-02-27T07:25:05.564Z,100.00
2023-02-27T07:27:32.957Z,100.00
2023-02-27T07:30:01.167Z,100.00
2023-02-27T07:32:28.800Z,100.00
2023-02-27T07:34:55.991Z,100.00
2023-02-27T07:37:23.241Z,100.00
2023-02-27T07:39:50.732Z,100.00
2023-02-27T07:42:18.102Z,100.00
2023-02-27T07:44:45.293Z,99.13
2023-02-27T07:47:12.775Z,99.94
2023-02-27T07:49:39.950Z,98.25
2023-02-27T07:52:08.410Z,95.85
2023-02-27T07:54:37.639Z,93.88
2023-02-27T07:57:05.958Z,94.56
2023-02-27T07:59:33.357Z,94.12
2023-02-27T08:02:00.625Z,95.34
2023-02-27T08:04:27.997Z,92.76
2023-02-27T08:06:55.270Z,93.57
2023-02-27T08:09:22.463Z,93.04
2023-02-27T08:11:49.738Z,93.51
2023-02-27T08:14:16.971Z,94.05
2023-02-27T08:16:44.154Z,96.96
2023-02-27T08:19:14.094Z,96.45
2023-02-27T08:21:41.775Z,96.27
2023-02-27T08:24:09.016Z,98.51
2023-02-27T08:26:36.661Z,98.31
2023-02-27T08:29:04.020Z,98.72
2023-02-27T08:31:31.408Z,95.64
2023-02-27T08:34:09.532Z,95.31
2023-02-27T08:36:38.264Z,95.66
2023-02-27T08:39:09.550Z,91.76
2023-02-27T08:41:37.109Z,92.87
2023-02-27T08:44:04.641Z,93.53
2023-02-27T08:46:32.164Z,92.46
2023-02-27T08:48:59.343Z,89.46
2023-02-27T08:51:26.920Z,89.30
2023-02-27T08:53:58.898Z,89.02
2023-02-27T08:56:27.517Z,86.31
2023-02-27T08:58:56.090Z,85.51
2023-02-27T09:01:24.033Z,82.45
2023-02-27T09:03:51.456Z,83.48
2023-02-27T09:06:18.609Z,81.62
2023-02-27T09:08:45.855Z,82.65
2023-02-27T09:11:13.175Z,78.81
2023-02-27T09:13:40.381Z,76.87
2023-02-27T09:16:07.994Z,79.40
2023-02-27T09:18:35.336Z,76.29
2023-02-27T09:21:03.466Z,78.36
2023-02-27T09:23:30.724Z,70.68
2023-02-27T09:25:57.913Z,70.71
2023-02-27T09:28:25.197Z,73.56
2023-02-27T09:30:52.904Z,72.17
2023-02-27T09:33:20.102Z,69.75
2023-02-27T09:35:47.400Z,71.52
2023-02-27T09:38:14.569Z,69.06
2023-02-27T09:40:44.716Z,66.53
2023-02-27T09:43:21.182Z,67.30
2023-02-27T09:45:54.838Z,63.86
2023-02-27T09:48:43.712Z,59.58
2023-02-27T09:51:11.042Z,61.39
2023-02-27T09:53:49.667Z,57.20
2023-02-27T09:56:42.440Z,57.56
2023-02-27T09:59:25.522Z,58.45
2023-02-27T10:02:09.191Z,57.14
2023-02-27T10:04:54.965Z,60.09
2023-02-27T10:08:01.003Z,58.55
2023-02-27T10:11:05.023Z,57.90
2023-02-27T10:14:02.315Z,56.90
2023-02-27T10:16:32.436Z,46.44
2023-02-27T10:19:10.850Z,46.63
2023-02-27T10:21:42.914Z,43.83
2023-02-27T10:24:27.518Z,41.44
2023-02-27T10:26:58.131Z,44.91
2023-02-27T10:29:36.977Z,47.81
2023-02-27T10:32:11.967Z,45.19
2023-02-27T10:34:42.353Z,41.60
2023-02-27T10:37:16.464Z,43.73
2023-02-27T10:39:49.931Z,44.02
2023-02-27T10:42:18.466Z,45.42
2023-02-27T10:44:46.309Z,47.58
2023-02-27T10:47:16.752Z,50.44
2023-02-27T10:49:44.567Z,50.79
2023-02-27T10:52:17.892Z,52.86
2023-02-27T10:54:47.082Z,55.50
2023-02-27T10:57:37.072Z,59.29
2023-02-27T11:00:23.361Z,60.96
2023-02-27T11:02:54.888Z,60.43
2023-02-27T11:05:31.112Z,62.06
2023-02-27T11:08:23.927Z,65.76
2023-02-27T11:11:27.652Z,64.65
2023-02-27T11:14:14.921Z,64.26
2023-02-27T11:16:55.890Z,65.29
2023-02-27T11:19:39.780Z,65.47
2023-02-27T11:22:08.373Z,64.64
2023-02-27T11:24:36.066Z,66.16
2023-02-27T11:27:29.523Z,62.65
2023-02-27T11:30:31.859Z,62.33
2023-02-27T11:33:01.659Z,63.16
2023-02-27T11:35:36.978Z,64.64
2023-02-27T11:38:18.815Z,68.45
2023-02-27T11:40:58.056Z,71.82
2023-02-27T11:43:33.338Z,72.96
2023-02-27T11:46:24.085Z,74.76
2023-02-27T11:49:14.571Z,75.78
2023-02-27T11:52:33.371Z,76.71
2023-02-27T11:55:03.978Z,75.49
2023-02-27T11:57:38.550Z,77.14
2023-02-27T12:00:33.675Z,76.54
2023-02-27T12:03:19.757Z,77.61
2023-02-27T12:05:53.754Z,75.50
2023-02-27T12:08:44.279Z,75.53
2023-02-27T12:11:29.923Z,80.79
2023-02-27T12:14:11.611Z,77.09
2023-02-27T12:16:46.560Z,74.43
2023-02-27T12:19:16.710Z,74.86
2023-02-27T12:21:54.210Z,75.38
2023-02-27T12:24:49.562Z,75.04
2023-02-27T12:27:44.151Z,76.74
2023-02-27T12:30:26.979Z,75.85
2023-02-27T12:33:25.209Z,78.27
2023-02-27T12:36:02.500Z,81.70
2023-02-27T12:38:30.195Z,78.83
2023-02-27T12:41:41.727Z,80.66
2023-02-27T12:44:14.818Z,81.95
2023-02-27T12:47:20.307Z,82.09
2023-02-27T12:50:15.904Z,72.37
2023-02-27T12:53:40.788Z,71.26
2023-02-27T12:56:17.877Z,69.55
2023-02-27T12:59:29.807Z,66.73
2023-02-27T13:02:37.532Z,68.50
2023-02-27T13:05:49.257Z,71.34
2023-02-27T13:08:59.944Z,70.01
2023-02-27T13:12:11.600Z,70.10
2023-02-27T13:15:06.268Z,66.39
2023-02-27T13:17:49.946Z,62.55
2023-02-27T13:20:25.768Z,62.56
2023-02-27T13:23:01.476Z,61.89
2023-02-27T13:25:30.802Z,63.81
2023-02-27T13:28:03.778Z,59.93
2023-02-27T13:30:41.445Z,62.87
2023-02-27T13:33:25.290Z,65.48
2023-02-27T13:36:19.112Z,67.62
2023-02-27T13:38:55.372Z,64.53
2023-02-27T13:41:25.631Z,69.24
2023-02-27T13:44:01.376Z,67.20
2023-02-27T13:46:33.891Z,66.72
2023-02-27T13:49:20.107Z,68.51
2023-02-27T13:51:56.814Z,67.37
2023-02-27T13:54:40.008Z,69.40
2023-02-27T13:57:24.378Z,71.30
2023-02-27T14:00:02.208Z,69.80
2023-02-27T14:02:59.389Z,69.74
2023-02-27T14:05:41.415Z,72.43
2023-02-27T14:08:25.922Z,70.06
2023-02-27T14:11:01.285Z,68.58
2023-02-27T14:13:50.341Z,71.87
2023-02-27T14:16:37.424Z,69.66
2023-02-27T14:19:24.453Z,67.54
2023-02-27T14:21:56.452Z,66.90
2023-02-27T14:24:49.625Z,74.06
2023-02-27T14:27:33.352Z,79.10
2023-02-27T14:30:11.602Z,80.92
2023-02-27T14:32:39.234Z,85.29
2023-02-27T14:35:07.525Z,86.76
2023-02-27T14:37:36.923Z,85.72
2023-02-27T14:40:06.448Z,86.76
2023-02-27T14:42:50.564Z,84.57
2023-02-27T14:45:25.521Z,83.01
2023-02-27T14:47:53.444Z,84.58
2023-02-27T14:50:35.183Z,85.22
2023-02-27T14:53:06.983Z,83.68
2023-02-27T14:55:36.853Z,83.67
2023-02-27T14:58:21.920Z,83.73
2023-02-27T15:00:58.731Z,82.95
2023-02-27T15:03:33.151Z,83.10
2023-02-27T15:06:04.100Z,81.98
2023-02-27T15:08:40.565Z,82.77
2023-02-27T15:11:14.189Z,81.21
2023-02-27T15:13:44.596Z,80.79
2023-02-27T15:16:23.876Z,82.13
2023-02-27T15:18:56.031Z,81.03
2023-02-27T15:21:27.044Z,78.10
2023-02-27T15:24:03.941Z,81.50
2023-02-27T15:26:40.614Z,81.21
2023-02-27T15:29:19.520Z,79.47
2023-02-27T15:31:46.957Z,81.87
2023-02-27T15:34:15.699Z,78.86
2023-02-27T15:36:57.477Z,80.56
2023-02-27T15:39:28.865Z,79.30
2023-02-27T15:42:03.429Z,80.21
2023-02-27T15:44:42.201Z,81.06
2023-02-27T15:47:18.574Z,79.78
2023-02-27T15:49:47.450Z,77.18
2023-02-27T15:52:23.010Z,79.49
2023-02-27T15:55:12.437Z,79.18
2023-02-27T15:57:40.921Z,79.82
2023-02-27T16:00:16.600Z,78.21
2023-02-27T16:02:52.913Z,81.08
2023-02-27T16:05:39.195Z,80.20
2023-02-27T16:08:07.355Z,80.69
2023-02-27T16:10:43.708Z,81.17
2023-02-27T16:13:37.208Z,79.53
2023-02-27T16:16:30.662Z,80.96
2023-02-27T16:19:03.471Z,81.36
2023-02-27T16:21:33.900Z,81.86
2023-02-27T16:24:22.036Z,81.79
2023-02-27T16:26:53.183Z,82.65
2023-02-27T16:29:23.833Z,81.40
2023-02-27T16:31:56.288Z,81.60
2023-02-27T16:34:45.735Z,81.85
2023-02-27T16:37:39.739Z,85.02
2023-02-27T16:40:20.120Z,83.63
2023-02-27T16:42:48.577Z,81.74
2023-02-27T16:45:28.669Z,81.91
2023-02-27T16:47:59.662Z,79.89
2023-02-27T16:50:40.671Z,81.43
2023-02-27T16:53:09.005Z,81.82
2023-02-27T16:55:41.075Z,80.15
2023-02-27T16:58:15.662Z,79.71
2023-02-27T17:00:43.465Z,76.92
2023-02-27T17:03:10.937Z,78.06
2023-02-27T17:05:38.230Z,78.17
2023-02-27T17:08:05.797Z,75.58
2023-02-27T17:10:33.641Z,76.67
2023-02-27T17:13:00.829Z,75.70
2023-02-27T17:15:29.211Z,76.77
2023-02-27T17:17:56.520Z,77.49
2023-02-27T17:20:26.071Z,76.64
2023-02-27T17:22:53.313Z,77.03
2023-02-27T17:25:20.641Z,77.80
2023-02-27T17:27:48.008Z,74.94
2023-02-27T17:30:15.881Z,75.94
2023-02-27T17:32:43.425Z,74.01
2023-02-27T17:35:11.511Z,73.67
2023-02-27T17:37:39.087Z,72.22
2023-02-27T17:40:08.362Z,72.65
2023-02-27T17:42:39.521Z,73.30
2023-02-27T17:45:08.776Z,73.44
2023-02-27T17:47:36.325Z,73.59
2023-02-27T17:50:05.444Z,73.88
2023-02-27T17:52:35.341Z,71.42
2023-02-27T17:55:03.679Z,73.74
2023-02-27T17:57:31.042Z,70.97
2023-02-27T17:59:58.338Z,71.34
2023-02-27T18:02:25.746Z,72.70
2023-02-27T18:04:53.247Z,71.41
2023-02-27T18:07:20.570Z,72.75
2023-02-27T18:09:48.064Z,72.76
2023-02-27T18:12:15.390Z,73.85
2023-02-27T18:14:42.671Z,74.06
2023-02-27T18:17:12.687Z,73.44
2023-02-27T18:19:43.790Z,73.90
2023-02-27T18:22:15.193Z,74.76
2023-02-27T18:24:42.462Z,73.16
2023-02-27T18:27:09.863Z,73.85
2023-02-27T18:29:37.236Z,73.10
2023-02-27T18:32:07.205Z,74.84
2023-02-27T18:34:34.709Z,74.75
2023-02-27T18:37:01.953Z,76.14
2023-02-27T18:39:29.321Z,77.05
2023-02-27T18:41:56.568Z,75.67
2023-02-27T18:44:24.354Z,76.00
2023-02-27T18:46:52.034Z,76.43
2023-02-27T18:49:19.526Z,76.38
2023-02-27T18:51:46.838Z,74.77
2023-02-27T18:54:15.379Z,76.88
2023-02-27T18:56:42.706Z,75.56
2023-02-27T18:59:12.129Z,76.45
2023-02-27T19:01:39.570Z,74.95
2023-02-27T19:04:09.619Z,75.53
2023-02-27T19:06:42.303Z,74.97
2023-02-27T19:09:16.180Z,77.15
2023-02-27T19:11:46.888Z,76.40
2023-02-27T19:14:16.094Z,76.29
2023-02-27T19:16:44.302Z,75.83
2023-02-27T19:19:11.974Z,75.95
2023-02-27T19:21:39.735Z,74.04
2023-02-27T19:24:08.246Z,75.91
2023-02-27T19:26:36.086Z,76.64
2023-02-27T19:29:04.160Z,77.73
2023-02-27T19:31:31.978Z,76.18
2023-02-27T19:34:00.231Z,78.14
2023-02-27T19:36:30.604Z,78.05
2023-02-27T19:38:58.525Z,76.33
2023-02-27T19:41:26.273Z,75.81
2023-02-27T19:43:55.936Z,75.95
2023-02-27T19:46:28.338Z,76.98
2023-02-27T19:49:01.016Z,75.13
2023-02-27T19:51:29.104Z,75.47
2023-02-27T19:53:56.963Z,75.91
2023-02-27T19:56:28.145Z,77.17
2023-02-27T19:58:56.263Z,78.00
2023-02-27T20:01:33.041Z,80.86
2023-02-27T20:04:02.139Z,76.27
2023-02-27T20:06:32.224Z,77.64
2023-02-27T20:09:00.446Z,78.12
2023-02-27T20:11:31.204Z,78.20
2023-02-27T20:13:59.240Z,78.63
2023-02-27T20:16:29.003Z,78.55
2023-02-27T20:18:57.280Z,78.27
2023-02-27T20:21:27.084Z,77.51
2023-02-27T20:23:55.608Z,82.27
2023-02-27T20:26:30.171Z,80.59
2023-02-27T20:29:16.330Z,80.65
2023-02-27T20:31:46.486Z,80.60
2023-02-27T20:34:17.235Z,82.78
2023-02-27T20:36:44.738Z,80.92
2023-02-27T20:39:12.856Z,79.63
2023-02-27T20:41:40.458Z,81.15
2023-02-27T20:44:09.057Z,83.48
2023-02-27T20:46:38.235Z,80.41
2023-02-27T20:49:06.674Z,81.40
2023-02-27T20:51:38.978Z,81.58
2023-02-27T20:54:11.840Z,83.02
2023-02-27T20:56:41.607Z,80.93
2023-02-27T20:59:16.866Z,80.23
2023-02-27T21:01:51.445Z,82.62
2023-02-27T21:04:43.229Z,83.41
2023-02-27T21:07:13.549Z,83.07
2023-02-27T21:09:41.422Z,84.05
2023-02-27T21:12:09.625Z,82.28
2023-02-27T21:14:37.481Z,81.41
2023-02-27T21:17:06.139Z,82.64
2023-02-27T21:19:33.556Z,82.90
2023-02-27T21:22:00.970Z,84.88
2023-02-27T21:24:32.164Z,83.16
2023-02-27T21:27:00.190Z,85.57
2023-02-27T21:29:27.546Z,82.62
2023-02-27T21:31:55.199Z,84.71
2023-02-27T21:34:26.913Z,82.91
2023-02-27T21:36:55.624Z,82.56
2023-02-27T21:39:27.088Z,83.15
2023-02-27T21:41:55.172Z,84.13
2023-02-27T21:44:26.477Z,84.63
2023-02-27T21:46:54.510Z,82.80
2023-02-27T21:49:28.305Z,83.27
2023-02-27T21:51:56.143Z,84.26
2023-02-27T21:54:23.859Z,83.62
2023-02-27T21:56:51.269Z,82.99
2023-02-27T21:59:19.413Z,82.45
2023-02-27T22:01:48.339Z,83.36
2023-02-27T22:04:19.217Z,82.89
2023-02-27T22:06:47.507Z,84.87
2023-02-27T22:09:15.156Z,86.09
2023-02-27T22:11:42.778Z,89.44
2023-02-27T22:14:11.922Z,83.73
2023-02-27T22:16:39.863Z,85.66
2023-02-27T22:19:13.860Z,87.01
2023-02-27T22:21:41.611Z,86.96
2023-02-27T22:24:09.160Z,84.67
2023-02-27T22:26:37.470Z,85.25
2023-02-27T22:29:06.873Z,85.96
2023-02-27T22:31:37.915Z,86.05
2023-02-27T22:34:12.394Z,87.50
2023-02-27T22:36:41.730Z,85.27
2023-02-27T22:39:09.159Z,88.05
2023-02-27T22:41:40.215Z,86.59
2023-02-27T22:44:12.341Z,86.26
2023-02-27T22:46:44.424Z,86.93
2023-02-27T22:49:16.128Z,86.96
2023-02-27T22:51:44.449Z,86.61
2023-02-27T22:54:14.891Z,86.13
2023-02-27T22:56:43.441Z,86.22
2023-02-27T22:59:11.352Z,88.23
2023-02-27T23:01:38.985Z,87.38
2023-02-27T23:04:09.051Z,87.56
2023-02-27T23:06:39.873Z,87.73
2023-02-27T23:09:09.457Z,87.93
2023-02-27T23:11:36.839Z,87.55
2023-02-27T23:14:04.697Z,88.05
2023-02-27T23:16:32.219Z,87.90
2023-02-27T23:19:00.919Z,87.86
2023-02-27T23:21:35.110Z,89.12
2023-02-27T23:24:08.754Z,87.70
2023-02-27T23:26:42.320Z,87.27
2023-02-27T23:29:10.398Z,86.46
2023-02-27T23:31:38.449Z,89.61
2023-02-27T23:34:07.026Z,88.43
2023-02-27T23:36:36.459Z,86.86
2023-02-27T23:39:05.697Z,90.19
2023-02-27T23:41:34.196Z,88.17
2023-02-27T23:44:01.929Z,88.69
2023-02-27T23:46:30.681Z,88.28
2023-02-27T23:49:02.051Z,89.54
2023-02-27T23:51:30.899Z,89.39
2023-02-27T23:53:59.258Z,89.51
2023-02-27T23:56:29.811Z,89.06
2023-02-27T23:59:01.539Z,89.35
